Time;durP1;ratioP1;P1;durP2;ratioP2;P2;SDS_P1;SDS_P2;PMS_P1;PMS_P2;Temp;Humidity;BMP_temperature;BMP_pressure;BME280_temperature;BME280_humidity;BME280_pressure;Samples;Min_cycle;Max_cycle;Signal;HPM_P1;HPM_P2
2022/11/14 18:35:05;;;;;;;8.47;7.50;;;7.10;99.90;;;;;;5071018;28;20548;-75
2022/11/14 18:37:31;;;;;;;8.97;8.10;;;6.90;99.90;;;;;;5071040;28;20193;-75
2022/11/14 18:39:57;;;;;;;8.90;8.10;;;6.80;99.90;;;;;;5069432;28;20169;-75
2022/11/14 18:42:23;;;;;;;12.30;8.10;;;6.70;99.90;;;;;;5069997;28;20173;-75
2022/11/14 18:44:48;;;;;;;9.20;8.30;;;6.70;99.90;;;;;;5069356;28;20188;-75
2022/11/14 18:47:14;;;;;;;9.55;8.63;;;6.60;99.90;;;;;;5069312;28;20197;-75
2022/11/14 18:53:01;;;;;;;8.82;7.95;;;6.50;99.90;;;;;;5070492;28;20290;-75
2022/11/14 18:55:27;;;;;;;9.55;8.55;;;6.40;99.90;;;;;;5069159;28;20221;-75
2022/11/14 18:57:53;;;;;;;9.02;7.97;;;6.30;99.90;;;;;;5069117;28;20198;-75
2022/11/14 19:00:18;;;;;;;10.35;8.00;;;6.30;99.90;;;;;;5069323;28;20545;-75
2022/11/14 19:02:48;;;;;;;8.82;8.02;;;6.10;99.90;;;;;;5068982;28;20637;-75
2022/11/14 19:05:15;;;;;;;10.48;9.27;;;6.10;99.90;;;;;;5070543;28;20669;-74
2022/11/14 19:12:16;;;;;;;9.50;8.50;;;6.00;99.90;;;;;;5070307;28;20157;-75
2022/11/14 19:13:54;;;;;;;9.18;8.38;;;5.90;99.90;;;;;;5070005;28;20549;-75
2022/11/14 19:16:37;;;;;;;10.07;8.45;;;5.80;99.90;;;;;;5068633;28;20198;-75
2022/11/14 19:19:18;;;;;;;11.50;10.38;;;5.80;99.90;;;;;;5068773;28;20176;-75
2022/11/14 19:25:17;;;;;;;10.85;9.50;;;5.80;99.90;;;;;;5069786;28;20189;-75
2022/11/14 19:27:48;;;;;;;11.70;10.50;;;5.80;99.90;;;;;;5069831;28;20272;-75
2022/11/14 19:33:39;;;;;;;9.48;7.50;;;6.00;99.90;;;;;;5069622;28;20244;-75
2022/11/14 19:36:06;;;;;;;7.85;6.95;;;6.20;99.90;;;;;;5069433;28;20189;-76
2022/11/14 19:39:08;;;;;;;7.88;7.03;;;6.40;99.90;;;;;;5069419;28;20640;-76
2022/11/14 19:41:33;;;;;;;8.50;7.40;;;6.60;99.90;;;;;;5069295;28;20256;-76
2022/11/14 19:44:16;;;;;;;7.35;6.63;;;6.70;99.90;;;;;;5069409;28;20190;-76
2022/11/14 19:46:42;;;;;;;10.35;7.40;;;6.80;99.90;;;;;;5055031;28;20198;-76
2022/11/14 19:49:08;;;;;;;7.13;6.47;;;6.90;99.90;;;;;;5054926;28;20303;-75
2022/11/14 19:51:34;;;;;;;7.60;6.80;;;6.90;99.90;;;;;;5054861;28;20174;-75
2022/11/14 19:54:01;;;;;;;7.10;6.50;;;6.90;99.90;;;;;;5054794;28;20198;-76
2022/11/14 19:56:26;;;;;;;7.30;6.60;;;7.00;99.90;;;;;;5055939;28;20225;-75
2022/11/14 19:58:55;;;;;;;8.10;6.53;;;7.00;99.90;;;;;;5054978;28;20214;-77
2022/11/14 20:01:25;;;;;;;8.02;6.57;;;7.10;99.90;;;;;;5054621;28;20170;-76
2022/11/14 20:04:01;;;;;;;7.15;6.45;;;7.10;99.90;;;;;;5055950;28;20205;-76
2022/11/14 20:06:33;;;;;;;7.50;6.75;;;7.20;99.90;;;;;;5054671;28;20201;-76
2022/11/14 20:09:01;;;;;;;6.97;6.30;;;7.30;99.90;;;;;;5055957;28;20208;-76
2022/11/14 20:11:29;;;;;;;12.55;9.73;;;7.30;99.90;;;;;;5054815;28;20707;-76
2022/11/14 20:13:55;;;;;;;13.43;10.68;;;7.30;99.90;;;;;;5054631;28;20551;-76
2022/11/14 20:16:26;;;;;;;8.32;7.50;;;7.40;99.90;;;;;;5054310;28;20221;-76
2022/11/14 20:18:52;;;;;;;8.27;6.78;;;7.40;99.90;;;;;;5055256;28;20174;-76
2022/11/14 20:21:24;;;;;;;8.25;6.60;;;7.50;99.90;;;;;;5054288;28;20549;-76
2022/11/14 20:23:50;;;;;;;19.83;13.57;;;7.50;99.90;;;;;;5054559;28;20175;-76
2022/11/14 20:26:17;;;;;;;10.32;9.23;;;7.50;99.90;;;;;;5054516;28;20205;-77
2022/11/14 20:28:44;;;;;;;7.50;6.60;;;7.50;99.90;;;;;;5054141;28;20206;-76
2022/11/14 20:34:41;;;;;;;7.18;6.47;;;7.50;99.90;;;;;;5055153;28;20664;-76
2022/11/14 20:37:07;;;;;;;7.22;6.40;;;7.60;99.90;;;;;;5055476;28;20280;-76
2022/11/14 20:39:32;;;;;;;7.50;6.80;;;7.60;99.90;;;;;;5054842;28;20273;-76
2022/11/14 20:42:53;;;;;;;7.15;6.45;;;7.70;99.90;;;;;;5053940;28;20186;-76
2022/11/14 20:45:24;;;;;;;14.63;11.05;;;7.70;99.90;;;;;;5053918;28;20174;-76
2022/11/14 20:47:54;;;;;;;14.25;10.95;;;7.70;99.90;;;;;;5054898;28;20186;-76
2022/11/14 20:50:20;;;;;;;9.15;8.25;;;7.80;99.90;;;;;;5054054;28;20536;-76
2022/11/14 20:52:46;;;;;;;10.27;7.57;;;7.80;99.90;;;;;;5053980;28;20178;-76
2022/11/14 20:55:12;;;;;;;9.88;8.57;;;7.80;99.90;;;;;;5053717;28;20170;-76
2022/11/14 20:58:16;;;;;;;8.27;7.47;;;7.90;99.90;;;;;;5053942;28;20556;-75
2022/11/14 21:00:42;;;;;;;8.57;7.70;;;7.90;99.90;;;;;;5055087;28;20165;-75
2022/11/14 21:03:09;;;;;;;9.05;7.43;;;7.90;99.90;;;;;;5053879;28;20182;-75
2022/11/14 21:05:38;;;;;;;8.48;7.68;;;7.90;99.90;;;;;;5053288;28;20575;-76
2022/11/14 21:08:16;;;;;;;8.38;7.47;;;7.90;99.90;;;;;;5053614;28;20227;-75
2022/11/14 21:10:48;;;;;;;8.32;7.07;;;7.90;99.90;;;;;;5054572;28;20240;-75
2022/11/14 21:16:02;;;;;;;9.07;7.13;;;7.90;99.90;;;;;;5054964;28;20204;-76
2022/11/14 21:18:28;;;;;;;8.15;7.00;;;7.90;99.90;;;;;;5053187;28;20273;-76
2022/11/14 21:21:07;;;;;;;9.05;6.47;;;8.00;99.90;;;;;;5053387;28;20206;-75
2022/11/14 21:23:33;;;;;;;6.70;6.07;;;8.10;99.90;;;;;;5053083;28;20178;-75
2022/11/14 21:26:17;;;;;;;6.68;5.70;;;8.10;99.90;;;;;;5054374;28;20201;-75
2022/11/14 21:28:45;;;;;;;6.97;6.28;;;8.10;99.90;;;;;;5053939;28;20251;-75
2022/11/14 21:31:22;;;;;;;7.07;5.90;;;8.10;99.90;;;;;;5052881;28;20653;-75
2022/11/14 21:37:10;;;;;;;6.68;6.07;;;8.10;99.90;;;;;;5054550;28;20301;-75
2022/11/14 21:39:35;;;;;;;7.35;6.25;;;8.10;99.90;;;;;;5053247;28;20627;-75
2022/11/14 21:42:01;;;;;;;6.65;6.00;;;8.10;99.90;;;;;;5053127;28;20178;-81
2022/11/14 21:44:27;;;;;;;6.07;5.47;;;8.10;99.90;;;;;;5053170;28;20224;-76
2022/11/14 21:46:52;;;;;;;6.03;5.35;;;8.10;99.90;;;;;;5053433;28;20212;-76
2022/11/14 21:49:18;;;;;;;6.05;5.40;;;8.10;99.90;;;;;;5052568;28;20672;-76
2022/11/14 21:51:43;;;;;;;6.90;5.75;;;8.10;99.90;;;;;;5054020;28;20177;-76
2022/11/14 21:57:31;;;;;;;6.20;5.60;;;7.80;99.90;;;;;;5053922;28;20209;-76
2022/11/14 21:59:56;;;;;;;6.43;5.82;;;7.50;99.90;;;;;;5052507;28;20178;-76
2022/11/14 22:05:06;;;;;;;7.05;6.45;;;7.20;99.90;;;;;;5053711;28;20713;-76
2022/11/14 22:07:32;;;;;;;7.15;6.32;;;7.00;99.90;;;;;;5053877;28;20229;-76
2022/11/14 22:09:57;;;;;;;7.22;6.53;;;6.90;99.90;;;;;;5052336;28;20209;-76
2022/11/14 22:12:23;;;;;;;7.25;6.55;;;6.80;99.90;;;;;;5053176;28;20600;-76
2022/11/14 22:14:48;;;;;;;8.38;6.32;;;6.70;99.90;;;;;;5052216;28;20213;-76
2022/11/14 22:17:14;;;;;;;7.78;6.93;;;6.70;99.90;;;;;;5052711;28;20243;-76
2022/11/14 22:19:39;;;;;;;7.88;6.90;;;6.70;99.90;;;;;;5052253;28;20174;-76
2022/11/14 22:22:05;;;;;;;8.73;7.20;;;6.60;99.90;;;;;;5053026;28;20183;-76
2022/11/14 22:24:30;;;;;;;8.77;7.35;;;6.50;99.90;;;;;;5052424;28;20656;-76
2022/11/14 22:26:56;;;;;;;7.30;6.60;;;6.50;99.90;;;;;;5052384;28;20198;-76
2022/11/14 22:29:21;;;;;;;10.30;7.30;;;6.40;99.90;;;;;;5052126;28;20186;-76
2022/11/14 22:31:47;;;;;;;9.45;7.38;;;6.40;99.90;;;;;;5053239;28;20209;-76
2022/11/14 22:34:13;;;;;;;10.55;7.40;;;6.30;99.90;;;;;;5053158;28;20637;-76
2022/11/14 22:36:38;;;;;;;8.40;6.03;;;6.40;99.90;;;;;;5052289;28;20201;-76
2022/11/14 22:39:04;;;;;;;5.90;5.35;;;6.50;99.90;;;;;;5053273;28;20198;-76
2022/11/14 22:41:31;;;;;;;7.60;5.90;;;6.60;99.90;;;;;;5051985;28;20184;-76
2022/11/14 22:43:57;;;;;;;9.00;6.07;;;6.60;99.90;;;;;;5052309;28;20182;-76
2022/11/14 22:46:23;;;;;;;9.15;6.90;;;6.60;99.90;;;;;;5052567;28;20201;-76
2022/11/14 22:48:50;;;;;;;10.05;6.28;;;6.70;99.90;;;;;;5053117;28;20174;-76
2022/11/14 22:51:21;;;;;;;7.50;6.45;;;6.80;99.90;;;;;;5051956;28;20690;-76
2022/11/14 22:53:48;;;;;;;10.13;6.55;;;6.90;99.90;;;;;;5051837;28;20700;-76
2022/11/14 22:56:16;;;;;;;7.70;5.93;;;6.90;99.90;;;;;;5052086;28;20205;-76
2022/11/14 22:58:42;;;;;;;9.38;6.05;;;6.90;99.90;;;;;;5051865;28;20227;-76
2022/11/14 23:01:27;;;;;;;6.35;5.53;;;7.00;99.90;;;;;;5052518;28;20592;-76
2022/11/14 23:04:01;;;;;;;8.52;6.53;;;6.90;99.90;;;;;;5052360;28;20204;-76
2022/11/14 23:06:29;;;;;;;7.07;5.97;;;7.00;99.90;;;;;;5052974;28;20278;-76
2022/11/14 23:08:55;;;;;;;6.93;4.72;;;7.10;99.90;;;;;;5052579;28;20213;-76
2022/11/14 23:11:23;;;;;;;6.45;5.05;;;7.30;99.90;;;;;;5053306;28;20583;-76
2022/11/14 23:14:10;;;;;;;7.18;5.00;;;7.40;99.90;;;;;;5051612;28;20312;-76
2022/11/14 23:16:36;;;;;;;6.32;5.05;;;7.50;99.90;;;;;;5052519;28;20205;-76
2022/11/14 23:19:03;;;;;;;6.97;4.80;;;7.60;99.90;;;;;;5051723;28;20182;-76
2022/11/14 23:21:34;;;;;;;5.22;4.30;;;7.60;99.90;;;;;;5054994;28;20224;-76
2022/11/14 23:24:05;;;;;;;5.50;4.55;;;7.70;99.90;;;;;;5056889;28;20246;-76
2022/11/14 23:26:32;;;;;;;4.88;4.20;;;7.80;99.90;;;;;;5055344;28;20202;-76
2022/11/14 23:28:58;;;;;;;7.35;4.20;;;7.80;99.90;;;;;;5055301;28;20205;-76
2022/11/14 23:31:24;;;;;;;5.30;4.65;;;7.90;99.90;;;;;;5055829;28;20178;-76
2022/11/14 23:33:52;;;;;;;6.13;4.38;;;8.00;99.90;;;;;;5055401;28;20205;-76
2022/11/14 23:36:18;;;;;;;4.72;4.30;;;8.10;99.90;;;;;;5055466;28;20216;-76
2022/11/14 23:38:44;;;;;;;6.00;4.05;;;8.10;99.90;;;;;;5055267;28;20653;-76
2022/11/14 23:41:18;;;;;;;7.35;4.13;;;8.10;99.90;;;;;;5055512;28;20224;-76
2022/11/14 23:43:44;;;;;;;5.35;4.20;;;8.10;99.90;;;;;;5055327;28;20170;-76
2022/11/14 23:46:10;;;;;;;4.82;3.97;;;8.30;99.90;;;;;;5055746;28;20194;-76
2022/11/14 23:48:35;;;;;;;4.22;3.78;;;8.40;99.90;;;;;;5054918;28;20676;-76
2022/11/14 23:51:01;;;;;;;4.68;3.78;;;8.40;99.90;;;;;;5056378;28;20178;-76
2022/11/14 23:53:26;;;;;;;4.28;3.88;;;8.40;99.90;;;;;;5056019;28;20202;-76
2022/11/14 23:55:53;;;;;;;4.40;4.00;;;8.40;99.90;;;;;;5054701;28;20237;-76
2022/11/14 23:58:20;;;;;;;6.35;4.00;;;8.30;99.90;;;;;;5054795;28;20205;-76
